sensor_id;sensor_type;location;lat;lon;timestamp;pressure;altitude;pressure_sealevel;temperature;humidity
10518;BME280;5307;42.548;22.968;2023-03-13T00:01:32;94057.75;;;-0.01;77.17
10518;BME280;5307;42.548;22.968;2023-03-13T00:03:59;94057.06;;;0.13;77.42
10518;BME280;5307;42.548;22.968;2023-03-13T00:06:29;94047.88;;;0.14;77.13
10518;BME280;5307;42.548;22.968;2023-03-13T00:08:57;94048.88;;;-0.12;77.52
10518;BME280;5307;42.548;22.968;2023-03-13T00:11:26;94045.00;;;-0.14;78.64
10518;BME280;5307;42.548;22.968;2023-03-13T00:13:54;94060.84;;;-0.53;77.86
10518;BME280;5307;42.548;22.968;2023-03-13T00:16:21;94058.69;;;-0.81;79.05
10518;BME280;5307;42.548;22.968;2023-03-13T00:18:49;94060.53;;;-0.89;80.06
10518;BME280;5307;42.548;22.968;2023-03-13T00:21:17;94062.72;;;-0.57;80.62
10518;BME280;5307;42.548;22.968;2023-03-13T00:23:45;94069.69;;;-0.49;80.28
10518;BME280;5307;42.548;22.968;2023-03-13T00:26:14;94060.97;;;-0.39;80.29
10518;BME280;5307;42.548;22.968;2023-03-13T00:28:43;94059.03;;;-0.39;79.87
10518;BME280;5307;42.548;22.968;2023-03-13T00:31:12;94061.00;;;-0.32;79.21
10518;BME280;5307;42.548;22.968;2023-03-13T00:33:40;94061.47;;;-0.23;79.32
10518;BME280;5307;42.548;22.968;2023-03-13T00:36:09;94067.56;;;-0.26;78.98
10518;BME280;5307;42.548;22.968;2023-03-13T00:38:36;94063.38;;;-0.23;78.99
10518;BME280;5307;42.548;22.968;2023-03-13T00:41:04;94059.34;;;-0.51;79.24
10518;BME280;5307;42.548;22.968;2023-03-13T00:43:32;94056.41;;;-0.32;79.72
10518;BME280;5307;42.548;22.968;2023-03-13T00:46:00;94057.13;;;-0.38;80.68
10518;BME280;5307;42.548;22.968;2023-03-13T00:48:27;94057.63;;;-0.22;80.64
10518;BME280;5307;42.548;22.968;2023-03-13T00:50:54;94051.38;;;-0.40;80.93
10518;BME280;5307;42.548;22.968;2023-03-13T00:53:21;94042.44;;;-0.55;81.05
10518;BME280;5307;42.548;22.968;2023-03-13T00:55:53;94045.28;;;-0.30;80.29
10518;BME280;5307;42.548;22.968;2023-03-13T00:58:20;94046.09;;;-0.26;80.61
10518;BME280;5307;42.548;22.968;2023-03-13T01:00:47;94036.94;;;-0.18;80.97
10518;BME280;5307;42.548;22.968;2023-03-13T01:03:15;94039.13;;;-0.38;80.90
10518;BME280;5307;42.548;22.968;2023-03-13T01:05:42;94052.16;;;-0.36;80.89
10518;BME280;5307;42.548;22.968;2023-03-13T01:08:09;94036.00;;;-0.43;81.14
10518;BME280;5307;42.548;22.968;2023-03-13T01:10:36;94048.28;;;-0.42;80.66
10518;BME280;5307;42.548;22.968;2023-03-13T01:13:03;94049.78;;;-0.45;81.44
10518;BME280;5307;42.548;22.968;2023-03-13T01:15:34;94039.91;;;-0.34;81.37
10518;BME280;5307;42.548;22.968;2023-03-13T01:18:01;94051.44;;;-0.30;80.05
10518;BME280;5307;42.548;22.968;2023-03-13T01:20:30;94051.91;;;-0.68;80.31
10518;BME280;5307;42.548;22.968;2023-03-13T01:22:56;94047.47;;;-0.46;80.03
10518;BME280;5307;42.548;22.968;2023-03-13T01:25:23;94047.44;;;-0.53;79.87
10518;BME280;5307;42.548;22.968;2023-03-13T01:27:50;94062.03;;;-0.47;80.24
10518;BME280;5307;42.548;22.968;2023-03-13T01:30:17;94065.84;;;-0.48;80.97
10518;BME280;5307;42.548;22.968;2023-03-13T01:32:44;94061.44;;;-0.74;81.70
10518;BME280;5307;42.548;22.968;2023-03-13T01:35:11;94063.38;;;-0.71;82.00
10518;BME280;5307;42.548;22.968;2023-03-13T01:37:39;94060.53;;;-0.89;82.27
10518;BME280;5307;42.548;22.968;2023-03-13T01:40:06;94057.72;;;-0.59;82.44
10518;BME280;5307;42.548;22.968;2023-03-13T01:42:48;94066.78;;;-0.74;83.08
10518;BME280;5307;42.548;22.968;2023-03-13T01:45:53;94067.25;;;-0.69;83.79
10518;BME280;5307;42.548;22.968;2023-03-13T01:48:24;94060.78;;;-1.01;83.46
10518;BME280;5307;42.548;22.968;2023-03-13T01:50:56;94068.38;;;-1.10;84.80
10518;BME280;5307;42.548;22.968;2023-03-13T01:53:28;94065.88;;;-0.93;84.28
10518;BME280;5307;42.548;22.968;2023-03-13T01:55:56;94067.88;;;-1.20;84.66
10518;BME280;5307;42.548;22.968;2023-03-13T01:58:24;94067.50;;;-1.22;83.49
10518;BME280;5307;42.548;22.968;2023-03-13T02:00:53;94069.56;;;-1.04;82.53
10518;BME280;5307;42.548;22.968;2023-03-13T02:03:20;94072.34;;;-0.97;82.79
10518;BME280;5307;42.548;22.968;2023-03-13T02:05:49;94076.72;;;-1.15;82.31
10518;BME280;5307;42.548;22.968;2023-03-13T02:08:18;94078.56;;;-0.86;82.88
10518;BME280;5307;42.548;22.968;2023-03-13T02:10:50;94077.09;;;-0.80;82.03
10518;BME280;5307;42.548;22.968;2023-03-13T02:13:19;94076.13;;;-1.35;83.98
10518;BME280;5307;42.548;22.968;2023-03-13T02:15:47;94089.28;;;-1.23;84.96
10518;BME280;5307;42.548;22.968;2023-03-13T02:18:14;94089.56;;;-1.32;85.92
10518;BME280;5307;42.548;22.968;2023-03-13T02:20:41;94095.66;;;-1.35;85.51
10518;BME280;5307;42.548;22.968;2023-03-13T02:23:14;94086.19;;;-1.59;86.23
10518;BME280;5307;42.548;22.968;2023-03-13T02:25:47;94095.28;;;-1.33;86.68
10518;BME280;5307;42.548;22.968;2023-03-13T02:28:17;94103.53;;;-1.49;86.95
10518;BME280;5307;42.548;22.968;2023-03-13T02:30:46;94091.41;;;-1.39;87.03
10518;BME280;5307;42.548;22.968;2023-03-13T02:33:15;94097.63;;;-1.62;87.07
10518;BME280;5307;42.548;22.968;2023-03-13T02:35:43;94104.97;;;-1.55;87.31
10518;BME280;5307;42.548;22.968;2023-03-13T02:38:13;94105.44;;;-1.50;87.59
10518;BME280;5307;42.548;22.968;2023-03-13T02:40:45;94104.63;;;-1.54;87.36
10518;BME280;5307;42.548;22.968;2023-03-13T02:43:16;94114.75;;;-1.40;87.41
10518;BME280;5307;42.548;22.968;2023-03-13T02:46:00;94120.44;;;-1.41;87.40
10518;BME280;5307;42.548;22.968;2023-03-13T02:48:31;94112.06;;;-1.40;87.45
10518;BME280;5307;42.548;22.968;2023-03-13T02:50:59;94119.97;;;-1.51;87.87
10518;BME280;5307;42.548;22.968;2023-03-13T02:53:26;94120.69;;;-1.54;87.67
10518;BME280;5307;42.548;22.968;2023-03-13T02:55:55;94125.34;;;-1.47;87.87
10518;BME280;5307;42.548;22.968;2023-03-13T02:58:23;94124.53;;;-1.51;87.49
10518;BME280;5307;42.548;22.968;2023-03-13T03:00:50;94119.22;;;-1.47;88.41
10518;BME280;5307;42.548;22.968;2023-03-13T03:03:17;94129.03;;;-1.59;88.01
10518;BME280;5307;42.548;22.968;2023-03-13T03:05:44;94131.69;;;-1.59;88.66
10518;BME280;5307;42.548;22.968;2023-03-13T03:08:11;94130.97;;;-1.56;87.94
10518;BME280;5307;42.548;22.968;2023-03-13T03:10:38;94134.56;;;-1.44;88.39
10518;BME280;5307;42.548;22.968;2023-03-13T03:13:06;94136.69;;;-1.57;87.55
10518;BME280;5307;42.548;22.968;2023-03-13T03:15:33;94130.78;;;-1.70;87.86
10518;BME280;5307;42.548;22.968;2023-03-13T03:17:59;94132.41;;;-1.65;87.74
10518;BME280;5307;42.548;22.968;2023-03-13T03:20:26;94147.81;;;-1.55;88.28
10518;BME280;5307;42.548;22.968;2023-03-13T03:22:53;94151.28;;;-2.07;89.03
10518;BME280;5307;42.548;22.968;2023-03-13T03:25:20;94161.19;;;-1.55;88.73
10518;BME280;5307;42.548;22.968;2023-03-13T03:27:46;94175.28;;;-1.88;88.68
10518;BME280;5307;42.548;22.968;2023-03-13T03:30:16;94170.09;;;-1.77;88.26
10518;BME280;5307;42.548;22.968;2023-03-13T03:32:42;94172.19;;;-1.90;88.07
10518;BME280;5307;42.548;22.968;2023-03-13T03:35:09;94177.06;;;-1.69;87.98
10518;BME280;5307;42.548;22.968;2023-03-13T03:37:36;94187.56;;;-1.84;88.29
10518;BME280;5307;42.548;22.968;2023-03-13T03:40:04;94179.53;;;-1.84;87.90
10518;BME280;5307;42.548;22.968;2023-03-13T03:42:31;94189.41;;;-1.88;88.48
10518;BME280;5307;42.548;22.968;2023-03-13T03:44:58;94181.81;;;-1.86;87.81
10518;BME280;5307;42.548;22.968;2023-03-13T03:47:26;94182.69;;;-1.78;87.74
10518;BME280;5307;42.548;22.968;2023-03-13T03:49:53;94185.31;;;-1.82;88.73
10518;BME280;5307;42.548;22.968;2023-03-13T03:52:20;94192.50;;;-1.86;88.69
10518;BME280;5307;42.548;22.968;2023-03-13T03:54:46;94203.25;;;-1.56;88.96
10518;BME280;5307;42.548;22.968;2023-03-13T03:57:13;94205.06;;;-1.90;87.93
10518;BME280;5307;42.548;22.968;2023-03-13T03:59:40;94202.31;;;-1.97;87.55
10518;BME280;5307;42.548;22.968;2023-03-13T04:02:07;94214.00;;;-2.28;88.29
10518;BME280;5307;42.548;22.968;2023-03-13T04:04:35;94206.66;;;-2.34;88.18
10518;BME280;5307;42.548;22.968;2023-03-13T04:07:02;94215.84;;;-2.32;87.86
10518;BME280;5307;42.548;22.968;2023-03-13T04:09:29;94221.50;;;-2.37;87.94
10518;BME280;5307;42.548;22.968;2023-03-13T04:11:56;94222.28;;;-2.36;88.67
10518;BME280;5307;42.548;22.968;2023-03-13T04:14:22;94212.34;;;-2.13;89.52
10518;BME280;5307;42.548;22.968;2023-03-13T04:16:49;94221.72;;;-2.00;88.24
10518;BME280;5307;42.548;22.968;2023-03-13T04:19:16;94221.94;;;-1.86;88.00
10518;BME280;5307;42.548;22.968;2023-03-13T04:21:44;94218.44;;;-1.90;88.06
10518;BME280;5307;42.548;22.968;2023-03-13T04:24:11;94222.09;;;-2.24;88.25
10518;BME280;5307;42.548;22.968;2023-03-13T04:26:38;94221.63;;;-2.07;88.90
10518;BME280;5307;42.548;22.968;2023-03-13T04:32:21;94230.53;;;-2.22;89.18
10518;BME280;5307;42.548;22.968;2023-03-13T04:34:47;94238.63;;;-2.19;89.75
10518;BME280;5307;42.548;22.968;2023-03-13T04:37:16;94241.69;;;-2.40;88.41
10518;BME280;5307;42.548;22.968;2023-03-13T04:39:43;94250.25;;;-2.30;88.53
10518;BME280;5307;42.548;22.968;2023-03-13T04:42:10;94236.53;;;-2.71;89.40
10518;BME280;5307;42.548;22.968;2023-03-13T04:44:37;94251.22;;;-2.19;89.32
10518;BME280;5307;42.548;22.968;2023-03-13T04:47:04;94259.50;;;-2.05;88.22
10518;BME280;5307;42.548;22.968;2023-03-13T04:49:31;94263.47;;;-2.18;87.99
10518;BME280;5307;42.548;22.968;2023-03-13T04:51:59;94265.78;;;-2.17;88.31
10518;BME280;5307;42.548;22.968;2023-03-13T04:54:27;94268.59;;;-2.10;87.40
10518;BME280;5307;42.548;22.968;2023-03-13T04:56:54;94275.47;;;-2.31;87.07
10518;BME280;5307;42.548;22.968;2023-03-13T04:59:21;94272.28;;;-2.18;87.25
10518;BME280;5307;42.548;22.968;2023-03-13T05:01:48;94269.75;;;-2.30;87.10
10518;BME280;5307;42.548;22.968;2023-03-13T05:04:14;94266.31;;;-2.30;87.06
10518;BME280;5307;42.548;22.968;2023-03-13T05:06:41;94275.91;;;-2.49;88.56
10518;BME280;5307;42.548;22.968;2023-03-13T05:09:08;94272.94;;;-2.24;87.93
10518;BME280;5307;42.548;22.968;2023-03-13T05:11:37;94277.25;;;-2.16;88.40
10518;BME280;5307;42.548;22.968;2023-03-13T05:14:04;94280.28;;;-2.18;87.82
10518;BME280;5307;42.548;22.968;2023-03-13T05:16:33;94289.03;;;-2.40;88.33
10518;BME280;5307;42.548;22.968;2023-03-13T05:19:00;94288.72;;;-2.38;87.86
10518;BME280;5307;42.548;22.968;2023-03-13T05:21:27;94282.50;;;-2.23;87.86
10518;BME280;5307;42.548;22.968;2023-03-13T05:23:54;94287.91;;;-2.20;87.68
10518;BME280;5307;42.548;22.968;2023-03-13T05:26:20;94305.56;;;-2.15;87.42
10518;BME280;5307;42.548;22.968;2023-03-13T05:28:48;94287.84;;;-2.23;86.45
10518;BME280;5307;42.548;22.968;2023-03-13T05:31:15;94299.22;;;-2.26;86.31
10518;BME280;5307;42.548;22.968;2023-03-13T05:33:42;94284.03;;;-2.64;87.52
10518;BME280;5307;42.548;22.968;2023-03-13T05:36:09;94293.72;;;-2.37;88.22
10518;BME280;5307;42.548;22.968;2023-03-13T05:38:36;94298.13;;;-2.02;87.73
10518;BME280;5307;42.548;22.968;2023-03-13T05:41:03;94307.13;;;-1.91;87.43
10518;BME280;5307;42.548;22.968;2023-03-13T05:43:30;94302.00;;;-2.00;87.10
10518;BME280;5307;42.548;22.968;2023-03-13T05:45:58;94316.19;;;-1.76;86.22
10518;BME280;5307;42.548;22.968;2023-03-13T05:48:25;94315.38;;;-2.00;86.30
10518;BME280;5307;42.548;22.968;2023-03-13T05:50:51;94321.53;;;-1.76;86.22
10518;BME280;5307;42.548;22.968;2023-03-13T05:53:18;94314.06;;;-1.41;85.41
10518;BME280;5307;42.548;22.968;2023-03-13T05:55:45;94317.78;;;-1.23;85.04
10518;BME280;5307;42.548;22.968;2023-03-13T05:58:12;94309.75;;;-0.96;83.25
10518;BME280;5307;42.548;22.968;2023-03-13T06:00:38;94322.09;;;-0.88;82.22
10518;BME280;5307;42.548;22.968;2023-03-13T06:03:07;94321.38;;;-0.85;81.58
10518;BME280;5307;42.548;22.968;2023-03-13T06:05:33;94316.44;;;-0.53;81.24
10518;BME280;5307;42.548;22.968;2023-03-13T06:08:00;94323.13;;;-0.70;79.90
10518;BME280;5307;42.548;22.968;2023-03-13T06:10:27;94313.59;;;-0.64;79.57
10518;BME280;5307;42.548;22.968;2023-03-13T06:12:55;94322.91;;;-0.24;79.98
10518;BME280;5307;42.548;22.968;2023-03-13T06:15:22;94329.22;;;0.32;78.70
10518;BME280;5307;42.548;22.968;2023-03-13T06:17:49;94336.00;;;0.18;77.33
10518;BME280;5307;42.548;22.968;2023-03-13T06:20:17;94328.38;;;0.27;76.92
10518;BME280;5307;42.548;22.968;2023-03-13T06:22:44;94334.00;;;0.12;76.61
10518;BME280;5307;42.548;22.968;2023-03-13T06:25:11;94339.63;;;-0.01;76.36
10518;BME280;5307;42.548;22.968;2023-03-13T06:27:39;94330.38;;;0.34;75.72
10518;BME280;5307;42.548;22.968;2023-03-13T06:30:09;94335.88;;;0.48;75.73
10518;BME280;5307;42.548;22.968;2023-03-13T06:32:36;94328.19;;;0.95;73.91
10518;BME280;5307;42.548;22.968;2023-03-13T06:35:03;94324.31;;;0.92;74.07
10518;BME280;5307;42.548;22.968;2023-03-13T06:37:31;94322.59;;;1.25;72.89
10518;BME280;5307;42.548;22.968;2023-03-13T06:39:59;94326.94;;;1.47;71.14
10518;BME280;5307;42.548;22.968;2023-03-13T06:42:25;94321.19;;;1.52;70.93
10518;BME280;5307;42.548;22.968;2023-03-13T06:44:52;94329.44;;;1.95;70.40
10518;BME280;5307;42.548;22.968;2023-03-13T06:47:19;94325.66;;;2.24;69.58
10518;BME280;5307;42.548;22.968;2023-03-13T06:49:46;94324.19;;;2.66;67.66
10518;BME280;5307;42.548;22.968;2023-03-13T06:52:12;94326.50;;;2.92;66.05
10518;BME280;5307;42.548;22.968;2023-03-13T06:54:41;94308.00;;;2.87;65.22
10518;BME280;5307;42.548;22.968;2023-03-13T06:57:07;94328.00;;;2.33;66.60
10518;BME280;5307;42.548;22.968;2023-03-13T06:59:34;94326.88;;;2.94;65.48
10518;BME280;5307;42.548;22.968;2023-03-13T07:02:01;94316.78;;;3.38;64.18
10518;BME280;5307;42.548;22.968;2023-03-13T07:04:28;94318.25;;;3.64;63.02
10518;BME280;5307;42.548;22.968;2023-03-13T07:06:54;94309.19;;;4.06;60.19
10518;BME280;5307;42.548;22.968;2023-03-13T07:09:21;94314.97;;;4.11;60.68
10518;BME280;5307;42.548;22.968;2023-03-13T07:11:49;94321.47;;;3.05;60.64
10518;BME280;5307;42.548;22.968;2023-03-13T07:14:16;94307.91;;;3.37;62.14
10518;BME280;5307;42.548;22.968;2023-03-13T07:16:44;94306.34;;;3.47;60.51
10518;BME280;5307;42.548;22.968;2023-03-13T07:19:11;94305.56;;;4.37;59.50
10518;BME280;5307;42.548;22.968;2023-03-13T07:21:38;94297.84;;;4.88;58.36
10518;BME280;5307;42.548;22.968;2023-03-13T07:24:05;94295.53;;;5.27;56.86
10518;BME280;5307;42.548;22.968;2023-03-13T07:26:32;94301.59;;;4.49;56.06
10518;BME280;5307;42.548;22.968;2023-03-13T07:29:00;94295.38;;;3.90;58.13
10518;BME280;5307;42.548;22.968;2023-03-13T07:31:28;94304.38;;;4.42;58.74
10518;BME280;5307;42.548;22.968;2023-03-13T07:33:58;94296.31;;;4.87;56.25
10518;BME280;5307;42.548;22.968;2023-03-13T07:36:24;94292.03;;;6.29;54.96
10518;BME280;5307;42.548;22.968;2023-03-13T07:38:52;94292.88;;;5.95;52.21
10518;BME280;5307;42.548;22.968;2023-03-13T07:41:19;94295.22;;;5.59;52.53
10518;BME280;5307;42.548;22.968;2023-03-13T07:43:46;94295.66;;;6.19;51.01
10518;BME280;5307;42.548;22.968;2023-03-13T07:46:15;94286.22;;;6.58;49.22
10518;BME280;5307;42.548;22.968;2023-03-13T07:48:43;94292.56;;;6.47;50.37
10518;BME280;5307;42.548;22.968;2023-03-13T07:51:12;94280.63;;;7.58;49.09
10518;BME280;5307;42.548;22.968;2023-03-13T07:53:39;94276.09;;;7.52;46.32
10518;BME280;5307;42.548;22.968;2023-03-13T07:56:07;94272.53;;;7.55;47.82
10518;BME280;5307;42.548;22.968;2023-03-13T07:58:36;94267.19;;;6.84;48.30
10518;BME280;5307;42.548;22.968;2023-03-13T08:01:07;94289.59;;;6.38;47.58
10518;BME280;5307;42.548;22.968;2023-03-13T08:03:36;94273.94;;;6.49;47.76
10518;BME280;5307;42.548;22.968;2023-03-13T08:06:05;94273.31;;;7.12;48.70
10518;BME280;5307;42.548;22.968;2023-03-13T08:08:32;94266.34;;;7.54;47.25
10518;BME280;5307;42.548;22.968;2023-03-13T08:11:00;94274.97;;;8.09;46.44
10518;BME280;5307;42.548;22.968;2023-03-13T08:13:27;94280.69;;;7.35;45.69
10518;BME280;5307;42.548;22.968;2023-03-13T08:16:01;94276.47;;;8.29;44.26
10518;BME280;5307;42.548;22.968;2023-03-13T08:18:30;94271.16;;;7.66;45.74
10518;BME280;5307;42.548;22.968;2023-03-13T08:21:02;94280.28;;;8.52;44.61
10518;BME280;5307;42.548;22.968;2023-03-13T08:23:29;94283.69;;;8.00;45.02
10518;BME280;5307;42.548;22.968;2023-03-13T08:26:00;94277.69;;;9.42;41.27
10518;BME280;5307;42.548;22.968;2023-03-13T08:28:27;94282.47;;;8.41;43.73
10518;BME280;5307;42.548;22.968;2023-03-13T08:31:06;94287.81;;;8.97;42.99
10518;BME280;5307;42.548;22.968;2023-03-13T08:33:33;94282.97;;;8.36;43.66
10518;BME280;5307;42.548;22.968;2023-03-13T08:36:12;94282.81;;;7.67;44.43
10518;BME280;5307;42.548;22.968;2023-03-13T08:38:39;94274.75;;;8.55;43.28
10518;BME280;5307;42.548;22.968;2023-03-13T08:41:08;94279.69;;;8.24;41.86
10518;BME280;5307;42.548;22.968;2023-03-13T08:43:36;94275.03;;;8.77;41.79
10518;BME280;5307;42.548;22.968;2023-03-13T08:46:02;94277.06;;;8.57;40.99
10518;BME280;5307;42.548;22.968;2023-03-13T08:48:29;94269.00;;;9.02;41.75
10518;BME280;5307;42.548;22.968;2023-03-13T08:51:01;94273.78;;;8.10;41.49
10518;BME280;5307;42.548;22.968;2023-03-13T08:53:30;94275.69;;;8.49;41.66
10518;BME280;5307;42.548;22.968;2023-03-13T08:55:57;94277.66;;;9.13;43.29
10518;BME280;5307;42.548;22.968;2023-03-13T08:58:24;94272.66;;;8.79;37.81
10518;BME280;5307;42.548;22.968;2023-03-13T09:00:51;94274.19;;;9.58;41.23
10518;BME280;5307;42.548;22.968;2023-03-13T09:03:18;94276.31;;;8.89;40.57
10518;BME280;5307;42.548;22.968;2023-03-13T09:05:45;94273.44;;;9.41;39.38
10518;BME280;5307;42.548;22.968;2023-03-13T09:08:12;94279.97;;;8.99;41.92
10518;BME280;5307;42.548;22.968;2023-03-13T09:10:41;94276.31;;;8.89;42.92
10518;BME280;5307;42.548;22.968;2023-03-13T09:13:08;94271.78;;;8.66;43.29
10518;BME280;5307;42.548;22.968;2023-03-13T09:15:34;94268.63;;;8.51;41.60
10518;BME280;5307;42.548;22.968;2023-03-13T09:18:02;94269.03;;;9.47;39.51
10518;BME280;5307;42.548;22.968;2023-03-13T09:20:29;94256.72;;;9.56;39.47
10518;BME280;5307;42.548;22.968;2023-03-13T09:22:56;94258.69;;;8.93;40.87
10518;BME280;5307;42.548;22.968;2023-03-13T09:25:22;94272.31;;;9.84;41.35
10518;BME280;5307;42.548;22.968;2023-03-13T09:27:51;94267.34;;;9.66;44.13
10518;BME280;5307;42.548;22.968;2023-03-13T09:30:17;94256.84;;;10.35;43.70
10518;BME280;5307;42.548;22.968;2023-03-13T09:32:44;94255.78;;;11.18;42.96
10518;BME280;5307;42.548;22.968;2023-03-13T09:35:11;94258.25;;;10.65;41.77
10518;BME280;5307;42.548;22.968;2023-03-13T09:37:38;94258.47;;;10.84;39.68
10518;BME280;5307;42.548;22.968;2023-03-13T09:40:06;94265.13;;;10.95;41.91
10518;BME280;5307;42.548;22.968;2023-03-13T09:42:43;94252.31;;;11.05;40.62
10518;BME280;5307;42.548;22.968;2023-03-13T09:45:16;94261.00;;;9.40;42.95
10518;BME280;5307;42.548;22.968;2023-03-13T09:47:47;94245.19;;;10.06;39.71
10518;BME280;5307;42.548;22.968;2023-03-13T09:50:19;94244.47;;;10.69;41.09
10518;BME280;5307;42.548;22.968;2023-03-13T09:52:48;94248.28;;;10.21;40.76
10518;BME280;5307;42.548;22.968;2023-03-13T09:55:20;94248.34;;;9.63;41.45
10518;BME280;5307;42.548;22.968;2023-03-13T09:57:51;94238.28;;;10.56;38.38
10518;BME280;5307;42.548;22.968;2023-03-13T10:00:24;94242.63;;;9.28;40.92
10518;BME280;5307;42.548;22.968;2023-03-13T10:02:55;94227.34;;;10.68;40.59
10518;BME280;5307;42.548;22.968;2023-03-13T10:05:24;94226.41;;;10.08;40.30
10518;BME280;5307;42.548;22.968;2023-03-13T10:07:55;94229.69;;;9.61;40.14
10518;BME280;5307;42.548;22.968;2023-03-13T10:10:29;94234.06;;;9.59;38.98
10518;BME280;5307;42.548;22.968;2023-03-13T10:13:13;94227.28;;;9.92;38.38
10518;BME280;5307;42.548;22.968;2023-03-13T10:15:45;94223.00;;;9.49;41.78
10518;BME280;5307;42.548;22.968;2023-03-13T10:18:18;94214.09;;;10.03;39.89
10518;BME280;5307;42.548;22.968;2023-03-13T10:20:47;94207.50;;;10.43;39.41
10518;BME280;5307;42.548;22.968;2023-03-13T10:23:19;94209.66;;;10.48;39.45
10518;BME280;5307;42.548;22.968;2023-03-13T10:25:47;94207.69;;;10.23;39.81
10518;BME280;5307;42.548;22.968;2023-03-13T10:28:15;94209.28;;;10.84;40.65
10518;BME280;5307;42.548;22.968;2023-03-13T10:30:48;94200.69;;;10.60;37.13
10518;BME280;5307;42.548;22.968;2023-03-13T10:33:22;94203.78;;;9.40;41.71
10518;BME280;5307;42.548;22.968;2023-03-13T10:36:04;94198.00;;;9.38;39.45
10518;BME280;5307;42.548;22.968;2023-03-13T10:38:33;94194.88;;;10.07;38.44
10518;BME280;5307;42.548;22.968;2023-03-13T10:41:05;94185.94;;;10.19;39.61
10518;BME280;5307;42.548;22.968;2023-03-13T10:43:34;94183.53;;;10.59;38.47
10518;BME280;5307;42.548;22.968;2023-03-13T10:46:02;94172.97;;;11.30;39.20
10518;BME280;5307;42.548;22.968;2023-03-13T10:48:35;94167.91;;;11.07;37.52
10518;BME280;5307;42.548;22.968;2023-03-13T10:51:02;94172.59;;;10.08;36.12
10518;BME280;5307;42.548;22.968;2023-03-13T10:53:32;94166.94;;;10.16;36.54
10518;BME280;5307;42.548;22.968;2023-03-13T10:56:08;94164.97;;;10.54;36.65
10518;BME280;5307;42.548;22.968;2023-03-13T10:58:40;94158.16;;;11.19;40.38
10518;BME280;5307;42.548;22.968;2023-03-13T11:01:15;94152.69;;;9.70;38.94
10518;BME280;5307;42.548;22.968;2023-03-13T11:03:44;94152.56;;;10.88;40.73
10518;BME280;5307;42.548;22.968;2023-03-13T11:06:29;94146.53;;;10.93;40.79
10518;BME280;5307;42.548;22.968;2023-03-13T11:09:06;94139.22;;;10.90;39.52
10518;BME280;5307;42.548;22.968;2023-03-13T11:11:44;94125.88;;;10.92;39.41
10518;BME280;5307;42.548;22.968;2023-03-13T11:14:14;94137.88;;;11.51;39.11
10518;BME280;5307;42.548;22.968;2023-03-13T11:16:47;94139.22;;;11.46;41.82
10518;BME280;5307;42.548;22.968;2023-03-13T11:19:31;94139.13;;;10.81;42.71
10518;BME280;5307;42.548;22.968;2023-03-13T11:22:22;94129.97;;;11.09;41.46
10518;BME280;5307;42.548;22.968;2023-03-13T11:25:30;94122.78;;;11.24;40.17
10518;BME280;5307;42.548;22.968;2023-03-13T11:28:17;94126.41;;;10.99;37.05
10518;BME280;5307;42.548;22.968;2023-03-13T11:30:59;94121.25;;;11.23;38.43
10518;BME280;5307;42.548;22.968;2023-03-13T11:33:37;94096.97;;;10.34;38.09
10518;BME280;5307;42.548;22.968;2023-03-13T11:36:11;94104.81;;;11.14;36.20
10518;BME280;5307;42.548;22.968;2023-03-13T11:38:41;94105.00;;;11.42;35.38
10518;BME280;5307;42.548;22.968;2023-03-13T11:41:24;94093.88;;;11.67;36.92
10518;BME280;5307;42.548;22.968;2023-03-13T11:44:17;94089.34;;;11.42;35.42
10518;BME280;5307;42.548;22.968;2023-03-13T11:46:55;94095.44;;;10.21;35.98
10518;BME280;5307;42.548;22.968;2023-03-13T11:49:47;94082.22;;;11.23;37.95
10518;BME280;5307;42.548;22.968;2023-03-13T11:52:23;94081.25;;;11.39;38.41
10518;BME280;5307;42.548;22.968;2023-03-13T11:57:53;94064.66;;;11.55;37.41
10518;BME280;5307;42.548;22.968;2023-03-13T12:00:29;94066.03;;;11.28;35.83
10518;BME280;5307;42.548;22.968;2023-03-13T12:03:00;94053.44;;;11.62;37.05
10518;BME280;5307;42.548;22.968;2023-03-13T12:05:37;94058.19;;;12.02;36.83
10518;BME280;5307;42.548;22.968;2023-03-13T12:08:11;94045.75;;;11.17;35.02
10518;BME280;5307;42.548;22.968;2023-03-13T12:10:45;94046.25;;;10.81;33.13
10518;BME280;5307;42.548;22.968;2023-03-13T12:13:16;94035.13;;;11.41;34.68
10518;BME280;5307;42.548;22.968;2023-03-13T12:15:48;94038.91;;;11.12;32.49
10518;BME280;5307;42.548;22.968;2023-03-13T12:18:20;94043.41;;;11.59;36.36
10518;BME280;5307;42.548;22.968;2023-03-13T12:20:55;94035.19;;;11.28;35.89
10518;BME280;5307;42.548;22.968;2023-03-13T12:23:28;94039.94;;;11.37;33.93
10518;BME280;5307;42.548;22.968;2023-03-13T12:26:02;94036.25;;;10.43;33.41
10518;BME280;5307;42.548;22.968;2023-03-13T12:28:36;94033.81;;;11.54;35.25
10518;BME280;5307;42.548;22.968;2023-03-13T12:31:16;94037.16;;;11.27;34.63
10518;BME280;5307;42.548;22.968;2023-03-13T12:33:47;94034.22;;;11.44;34.93
10518;BME280;5307;42.548;22.968;2023-03-13T12:36:23;94042.84;;;11.73;34.96
10518;BME280;5307;42.548;22.968;2023-03-13T12:38:55;94034.59;;;11.64;36.60
10518;BME280;5307;42.548;22.968;2023-03-13T12:41:27;94025.47;;;11.58;34.54
10518;BME280;5307;42.548;22.968;2023-03-13T12:43:56;94029.66;;;11.41;32.83
10518;BME280;5307;42.548;22.968;2023-03-13T12:46:35;94028.84;;;10.87;34.46
10518;BME280;5307;42.548;22.968;2023-03-13T12:55:25;94029.28;;;11.29;35.12
10518;BME280;5307;42.548;22.968;2023-03-13T12:58:10;94023.25;;;11.13;30.06
10518;BME280;5307;42.548;22.968;2023-03-13T13:00:41;94018.50;;;11.04;28.58
10518;BME280;5307;42.548;22.968;2023-03-13T13:03:19;94027.06;;;11.15;34.15
10518;BME280;5307;42.548;22.968;2023-03-13T13:06:05;94029.84;;;11.24;32.52
10518;BME280;5307;42.548;22.968;2023-03-13T13:09:01;94024.66;;;10.74;26.56
10518;BME280;5307;42.548;22.968;2023-03-13T13:11:44;94028.06;;;11.30;30.10
10518;BME280;5307;42.548;22.968;2023-03-13T13:17:39;94004.31;;;11.49;30.24
10518;BME280;5307;42.548;22.968;2023-03-13T13:20:34;94013.84;;;11.45;32.89
10518;BME280;5307;42.548;22.968;2023-03-13T13:23:24;94016.00;;;10.75;32.44
10518;BME280;5307;42.548;22.968;2023-03-13T13:25:53;94010.50;;;10.88;32.73
10518;BME280;5307;42.548;22.968;2023-03-13T13:28:31;94005.53;;;10.95;30.85
10518;BME280;5307;42.548;22.968;2023-03-13T13:30:59;94000.25;;;11.01;26.07
10518;BME280;5307;42.548;22.968;2023-03-13T13:33:38;93996.91;;;10.75;29.88